Time;durP1;ratioP1;P1;durP2;ratioP2;P2;SDS_P1;SDS_P2;PMS_P1;PMS_P2;Temp;Humidity;BMP_temperature;BMP_pressure;BME280_temperature;BME280_humidity;BME280_pressure;Samples;Min_cycle;Max_cycle;Signal;HPM_P1;HPM_P2
2023/10/14 00:01:12;;;;;;;15.60;13.93;;;11.50;99.90;;;;;;4891660;29;20372;-73
2023/10/14 00:03:50;;;;;;;22.52;18.33;;;11.40;99.90;;;;;;4907645;29;20286;-73
2023/10/14 00:06:18;;;;;;;17.77;16.30;;;11.40;99.90;;;;;;4891266;29;20037;-73
2023/10/14 00:11:23;;;;;;;18.93;15.30;;;11.40;99.90;;;;;;4904777;29;20281;-73
2023/10/14 00:13:49;;;;;;;18.97;17.03;;;11.30;99.90;;;;;;4886253;29;20298;-73
2023/10/14 00:18:59;;;;;;;17.57;12.27;;;11.30;99.90;;;;;;4893849;29;20710;-73
2023/10/14 00:21:26;;;;;;;17.90;13.23;;;11.20;99.90;;;;;;4893619;29;20285;-73
2023/10/14 00:24:06;;;;;;;17.70;14.27;;;11.00;99.90;;;;;;4893497;29;20817;-73
2023/10/14 00:26:32;;;;;;;17.43;15.77;;;10.90;99.90;;;;;;4891550;29;20340;-73
2023/10/14 00:29:19;;;;;;;19.10;12.03;;;10.70;99.90;;;;;;4892806;29;20945;-73
2023/10/14 00:31:47;;;;;;;17.07;9.07;;;10.60;99.90;;;;;;4891830;29;20282;-73
2023/10/14 00:34:14;;;;;;;16.10;11.20;;;10.40;99.90;;;;;;4887430;29;20300;-73
2023/10/14 00:36:40;;;;;;;12.57;9.93;;;10.30;99.90;;;;;;4890809;29;20321;-73
2023/10/14 00:39:12;;;;;;;17.87;11.30;;;10.20;99.90;;;;;;4889411;29;20305;-73
2023/10/14 00:41:50;;;;;;;19.60;11.23;;;10.00;99.90;;;;;;4897166;29;20313;-73
2023/10/14 00:44:16;;;;;;;14.60;8.53;;;9.90;99.90;;;;;;4905834;29;20289;-73
2023/10/14 00:46:48;;;;;;;12.60;8.30;;;9.80;99.90;;;;;;4904876;29;20321;-73
2023/10/14 00:49:18;;;;;;;13.80;10.67;;;9.70;99.90;;;;;;4891063;29;20289;-73
2023/10/14 00:51:49;;;;;;;12.90;9.27;;;9.60;99.90;;;;;;4886937;29;20292;-73
2023/10/14 00:57:04;;;;;;;14.77;6.90;;;9.40;99.90;;;;;;4887615;29;20677;-72
2023/10/14 00:59:30;;;;;;;17.97;9.80;;;9.30;99.90;;;;;;4887746;29;20349;-73
2023/10/14 01:01:58;;;;;;;11.57;7.53;;;9.30;99.90;;;;;;4912756;29;20321;-73
2023/10/14 01:04:32;;;;;;;14.27;11.10;;;9.30;99.90;;;;;;4903754;29;20504;-73
2023/10/14 01:12:26;;;;;;;18.53;7.93;;;9.40;99.90;;;;;;4905572;29;20285;-73
2023/10/14 01:14:53;;;;;;;;;;;9.30;99.90;;;;;;4906345;29;20290;-73
2023/10/14 01:17:32;;;;;;;18.63;10.27;;;9.30;99.90;;;;;;4892114;29;19927;-73
2023/10/14 01:20:10;;;;;;;17.37;14.03;;;9.20;99.90;;;;;;4886617;29;20302;-73
2023/10/14 01:22:38;;;;;;;12.50;6.80;;;9.10;99.90;;;;;;4889186;29;20310;-73
2023/10/14 01:25:06;;;;;;;16.10;10.53;;;9.10;99.90;;;;;;4893695;29;20289;-73
2023/10/14 01:27:35;;;;;;;15.73;8.20;;;9.00;99.90;;;;;;4893357;29;20334;-73
2023/10/14 01:30:08;;;;;;;15.00;12.87;;;9.00;99.90;;;;;;4895969;29;20285;-73
2023/10/14 01:35:12;;;;;;;14.47;10.27;;;9.00;99.90;;;;;;4875427;29;20290;-72
2023/10/14 01:37:40;;;;;;;14.40;11.00;;;9.00;99.90;;;;;;4870095;29;20285;-71
2023/10/14 01:40:24;;;;;;;15.13;9.80;;;9.00;99.90;;;;;;4871821;29;20297;-72
2023/10/14 01:43:04;;;;;;;11.77;8.20;;;9.10;99.90;;;;;;4872834;29;20328;-72
2023/10/14 01:45:39;;;;;;;23.93;21.63;;;9.10;99.90;;;;;;4872851;29;20321;-71
2023/10/14 01:50:55;;;;;;;20.20;9.30;;;9.20;99.90;;;;;;4887381;29;20038;-71
2023/10/14 01:53:27;;;;;;;16.83;8.53;;;9.20;99.90;;;;;;4867908;29;20321;-71
2023/10/14 01:55:54;;;;;;;19.73;13.63;;;9.20;99.90;;;;;;4870136;29;20304;-72
2023/10/14 02:00:59;;;;;;;14.93;10.70;;;9.30;99.90;;;;;;4872102;29;20369;-71
2023/10/14 02:03:31;;;;;;;10.23;9.03;;;9.30;99.90;;;;;;4871761;29;20628;-71
2023/10/14 02:05:58;;;;;;;13.93;9.27;;;9.30;99.90;;;;;;4871899;29;20446;-72
2023/10/14 02:08:24;;;;;;;20.70;18.80;;;9.30;99.90;;;;;;4872422;29;20660;-72
2023/10/14 02:10:51;;;;;;;17.53;13.37;;;9.20;99.90;;;;;;4879282;29;20281;-71
2023/10/14 02:13:19;;;;;;;12.70;11.00;;;9.20;99.90;;;;;;4873314;29;20498;-72
2023/10/14 02:15:48;;;;;;;14.40;11.00;;;9.10;99.90;;;;;;4871650;29;20384;-71
2023/10/14 02:18:21;;;;;;;17.93;14.77;;;9.10;99.90;;;;;;4872503;29;20296;-71
2023/10/14 02:20:57;;;;;;;18.03;15.00;;;9.10;99.90;;;;;;4887269;29;20296;-71
2023/10/14 02:23:27;;;;;;;16.77;12.37;;;9.10;99.90;;;;;;4872422;29;20294;-71
2023/10/14 02:25:56;;;;;;;13.73;11.70;;;9.10;99.90;;;;;;4871886;29;20316;-71
2023/10/14 02:28:39;;;;;;;21.97;20.00;;;9.10;99.90;;;;;;4872163;29;20286;-72
2023/10/14 02:31:15;;;;;;;27.20;24.57;;;9.20;99.90;;;;;;4873495;29;20332;-72
2023/10/14 02:33:45;;;;;;;15.43;13.70;;;9.30;99.90;;;;;;4872836;29;20297;-72
2023/10/14 02:36:17;;;;;;;16.00;12.50;;;9.30;99.90;;;;;;4871491;29;20289;-71
2023/10/14 02:38:45;;;;;;;16.73;15.03;;;9.30;99.90;;;;;;4871086;29;20303;-72
2023/10/14 02:41:15;;;;;;;17.93;12.53;;;9.30;99.90;;;;;;4877659;29;20361;-72
2023/10/14 02:43:42;;;;;;;13.80;12.33;;;9.30;99.90;;;;;;4890145;29;20789;-72
2023/10/14 02:46:11;;;;;;;21.27;14.00;;;9.30;99.90;;;;;;4889305;29;20306;-72
2023/10/14 02:48:54;;;;;;;21.87;19.77;;;9.30;99.90;;;;;;4872208;29;20304;-72
2023/10/14 02:51:41;;;;;;;18.63;17.03;;;9.30;99.90;;;;;;4878022;29;20671;-72
2023/10/14 02:56:58;;;;;;;13.27;11.97;;;9.20;99.90;;;;;;4872914;29;20290;-72
2023/10/14 03:02:48;;;;;;;19.90;17.73;;;9.10;99.90;;;;;;4889482;29;20801;-72
2023/10/14 03:05:32;;;;;;;15.07;13.40;;;9.10;99.90;;;;;;4872892;29;20297;-72
2023/10/14 03:08:06;;;;;;;13.32;10.15;;;9.10;99.90;;;;;;4887070;29;20295;-72
2023/10/14 03:10:35;;;;;;;10.65;8.43;;;9.10;99.90;;;;;;4872448;29;20149;-72
2023/10/14 03:13:01;;;;;;;15.93;7.67;;;9.10;99.90;;;;;;4872633;29;20068;-72
2023/10/14 03:15:31;;;;;;;13.20;11.23;;;9.10;99.90;;;;;;4872575;29;20285;-72
2023/10/14 03:17:58;;;;;;;17.53;12.47;;;9.10;99.90;;;;;;4872692;29;20493;-72
2023/10/14 03:23:23;;;;;;;16.50;13.33;;;9.10;99.90;;;;;;4872896;29;20341;-72
2023/10/14 03:25:51;;;;;;;15.90;11.70;;;9.10;99.90;;;;;;4866376;29;20377;-72
2023/10/14 03:28:27;;;;;;;17.07;10.80;;;9.00;99.90;;;;;;4872521;29;20294;-72
2023/10/14 03:31:00;;;;;;;18.20;13.53;;;9.00;99.90;;;;;;4871630;29;20285;-72
2023/10/14 03:33:29;;;;;;;18.40;11.93;;;9.00;99.90;;;;;;4873385;29;20286;-72
2023/10/14 03:35:57;;;;;;;19.13;11.60;;;9.00;99.90;;;;;;4862719;29;20737;-72
2023/10/14 03:41:29;;;;;;;15.63;9.93;;;9.00;99.90;;;;;;4875140;29;20679;-72
2023/10/14 03:46:32;;;;;;;14.23;10.40;;;9.10;99.90;;;;;;4871995;29;20316;-72
2023/10/14 03:49:06;;;;;;;17.90;9.67;;;9.10;99.90;;;;;;4873331;29;20754;-72
2023/10/14 03:51:32;;;;;;;17.40;10.80;;;9.10;99.90;;;;;;4876392;29;20329;-72
2023/10/14 03:54:08;;;;;;;16.63;13.27;;;9.10;99.90;;;;;;4885232;29;20293;-73
2023/10/14 03:56:34;;;;;;;16.97;11.43;;;9.10;99.90;;;;;;4894912;29;20733;-73
2023/10/14 03:59:01;;;;;;;18.93;11.83;;;9.00;99.90;;;;;;4891778;29;20304;-73
2023/10/14 04:04:27;;;;;;;16.40;11.23;;;9.00;99.90;;;;;;4896461;29;20285;-73
2023/10/14 04:09:44;;;;;;;18.73;13.73;;;9.00;99.90;;;;;;4909062;29;20317;-73
2023/10/14 04:12:12;;;;;;;34.17;31.17;;;9.10;99.90;;;;;;4911620;29;20817;-73
2023/10/14 04:14:40;;;;;;;15.73;9.27;;;9.10;99.90;;;;;;4893992;29;20852;-73
2023/10/14 04:17:19;;;;;;;16.87;13.23;;;9.20;99.90;;;;;;4894498;29;20324;-73
2023/10/14 04:19:57;;;;;;;18.60;14.50;;;9.20;99.90;;;;;;4892477;29;20298;-73
2023/10/14 04:24:50;;;;;;;15.43;13.80;;;9.10;99.90;;;;;;4891999;29;20286;-73
2023/10/14 04:27:33;;;;;;;17.80;14.37;;;9.10;99.90;;;;;;4892605;29;20060;-73
2023/10/14 04:30:11;;;;;;;16.17;11.57;;;9.20;99.90;;;;;;4907061;29;20289;-73
2023/10/14 04:32:48;;;;;;;17.97;10.57;;;9.20;99.90;;;;;;4894493;29;20292;-73
2023/10/14 04:35:19;;;;;;;13.43;8.07;;;9.30;99.90;;;;;;4888082;29;20284;-73
2023/10/14 04:37:51;;;;;;;57.00;52.63;;;9.30;99.90;;;;;;4890934;29;20296;-73
2023/10/14 04:40:34;;;;;;;14.57;11.67;;;9.40;99.20;;;;;;4893809;29;20301;-73
2023/10/14 04:43:59;;;;;;;17.50;11.47;;;9.40;99.50;;;;;;4898991;29;20285;-73
2023/10/14 04:46:16;;;;;;;31.73;28.77;;;9.50;99.90;;;;;;4887531;29;20333;-73
2023/10/14 04:48:59;;;;;;;18.63;13.98;;;9.50;99.30;;;;;;4887502;29;20316;-73
2023/10/14 04:51:36;;;;;;;24.23;21.83;;;9.50;99.40;;;;;;4892381;29;20041;-73
2023/10/14 04:54:02;;;;;;;17.27;8.50;;;9.40;99.90;;;;;;4908689;29;20378;-73
2023/10/14 04:56:31;;;;;;;18.63;9.50;;;9.40;99.90;;;;;;4891105;29;20318;-73
2023/10/14 04:58:57;;;;;;;16.90;14.73;;;9.30;99.90;;;;;;4888967;29;20045;-72
2023/10/14 05:01:25;;;;;;;18.73;10.57;;;9.30;99.90;;;;;;4889764;29;20340;-73
2023/10/14 05:03:56;;;;;;;42.27;37.93;;;9.20;99.90;;;;;;4885673;29;20321;-73
2023/10/14 05:06:22;;;;;;;17.53;15.67;;;9.20;99.90;;;;;;4887015;29;20314;-73
2023/10/14 05:08:55;;;;;;;15.23;9.10;;;9.10;99.90;;;;;;4884205;29;20719;-73
2023/10/14 05:11:25;;;;;;;14.40;8.73;;;9.10;99.90;;;;;;4900743;29;20045;-73
2023/10/14 05:19:35;;;;;;;13.77;8.33;;;9.00;99.70;;;;;;4884601;29;20309;-72
2023/10/14 05:22:10;;;;;;;15.10;8.03;;;8.90;99.00;;;;;;4886301;29;20456;-72
2023/10/14 05:24:36;;;;;;;19.20;12.63;;;8.80;99.90;;;;;;4885926;29;20293;-72
2023/10/14 05:27:02;;;;;;;15.53;9.23;;;8.80;99.90;;;;;;4886011;29;20045;-72
2023/10/14 05:29:29;;;;;;;12.40;10.67;;;8.70;99.90;;;;;;4901291;29;20312;-72
2023/10/14 05:32:15;;;;;;;11.82;8.60;;;8.70;99.90;;;;;;4885734;29;20662;-72
2023/10/14 05:34:43;;;;;;;15.77;10.43;;;8.60;99.90;;;;;;4875968;29;20038;-72
2023/10/14 05:37:13;;;;;;;22.67;9.20;;;8.50;99.90;;;;;;4883961;29;20302;-72
2023/10/14 05:39:39;;;;;;;16.73;11.53;;;8.50;99.90;;;;;;4887855;29;20300;-73
2023/10/14 05:42:20;;;;;;;12.13;9.23;;;8.50;99.90;;;;;;4895790;29;20296;-73
2023/10/14 05:44:47;;;;;;;17.70;15.97;;;8.60;99.90;;;;;;4885217;29;20286;-73
2023/10/14 05:47:14;;;;;;;21.83;14.20;;;8.60;99.90;;;;;;4885330;29;20319;-73
2023/10/14 05:49:40;;;;;;;16.73;14.67;;;8.70;99.90;;;;;;4885306;29;20292;-73
2023/10/14 05:52:05;;;;;;;15.33;12.63;;;8.60;99.90;;;;;;4886837;29;20715;-73
2023/10/14 05:54:31;;;;;;;22.40;20.07;;;8.70;99.90;;;;;;4890886;29;20044;-72
2023/10/14 05:56:57;;;;;;;19.70;10.40;;;8.80;99.90;;;;;;4896337;29;20132;-72
2023/10/14 05:59:22;;;;;;;17.23;15.63;;;8.90;99.90;;;;;;4890699;29;20542;-72
2023/10/14 06:01:48;;;;;;;17.43;9.43;;;8.90;99.90;;;;;;4884967;29;20070;-72
2023/10/14 06:04:15;;;;;;;20.83;12.47;;;8.90;99.90;;;;;;4884562;29;20063;-72
2023/10/14 06:06:41;;;;;;;18.17;13.00;;;8.90;99.90;;;;;;4884430;29;20664;-72
2023/10/14 06:09:10;;;;;;;12.77;10.17;;;8.80;99.90;;;;;;4884411;29;20318;-72
2023/10/14 06:11:36;;;;;;;20.77;12.97;;;8.80;99.90;;;;;;4868668;29;20293;-72
2023/10/14 06:14:02;;;;;;;18.73;11.70;;;8.80;99.90;;;;;;4879778;29;20290;-72
2023/10/14 06:16:29;;;;;;;13.70;11.37;;;8.80;99.90;;;;;;4871576;29;20305;-72
2023/10/14 06:18:56;;;;;;;15.73;12.47;;;8.80;99.90;;;;;;4871005;29;20286;-72
2023/10/14 06:21:27;;;;;;;23.43;13.73;;;8.80;99.90;;;;;;4870786;29;20360;-72
2023/10/14 06:23:53;;;;;;;13.53;10.17;;;8.80;99.90;;;;;;4870604;29;20307;-72
2023/10/14 06:26:19;;;;;;;17.80;11.53;;;8.80;99.90;;;;;;4886743;29;20888;-72
2023/10/14 06:28:46;;;;;;;14.50;10.93;;;8.80;99.90;;;;;;4870740;29;20297;-72
2023/10/14 06:31:12;;;;;;;17.10;12.73;;;8.70;99.90;;;;;;4869867;29;20650;-72
2023/10/14 06:33:41;;;;;;;17.70;13.13;;;8.70;99.90;;;;;;4871312;29;20416;-72
2023/10/14 06:36:10;;;;;;;15.43;11.67;;;8.70;99.90;;;;;;4871131;29;20286;-72
2023/10/14 06:38:40;;;;;;;14.90;10.60;;;8.70;99.90;;;;;;4866915;29;20293;-72
2023/10/14 06:41:11;;;;;;;17.57;11.77;;;8.70;99.90;;;;;;4830725;29;1334322;-72
2023/10/14 06:43:38;;;;;;;18.20;16.27;;;8.80;99.90;;;;;;4875976;29;20530;-72
2023/10/14 06:46:05;;;;;;;21.80;13.27;;;8.80;99.90;;;;;;4870365;29;20745;-72
2023/10/14 06:48:32;;;;;;;20.47;14.60;;;8.90;99.90;;;;;;4871360;29;20340;-72
2023/10/14 06:50:59;;;;;;;18.23;16.33;;;8.90;99.90;;;;;;4887278;29;20282;-72
2023/10/14 06:53:28;;;;;;;19.53;14.57;;;9.00;99.90;;;;;;4853720;29;20366;-72
2023/10/14 06:55:54;;;;;;;14.97;10.37;;;9.00;99.90;;;;;;4868102;29;20282;-72
2023/10/14 06:58:21;;;;;;;20.53;14.07;;;9.10;99.90;;;;;;4853109;29;20384;-72
2023/10/14 07:00:51;;;;;;;23.10;11.90;;;9.10;99.90;;;;;;4872117;29;20342;-72
2023/10/14 07:03:17;;;;;;;19.67;12.23;;;9.20;99.90;;;;;;4875139;29;20647;-72
2023/10/14 07:05:48;;;;;;;17.87;13.13;;;9.30;99.90;;;;;;4871113;29;20356;-72
2023/10/14 07:08:15;;;;;;;14.73;10.60;;;9.40;99.90;;;;;;4871607;29;20960;-72
2023/10/14 07:10:41;;;;;;;16.53;8.83;;;9.50;99.90;;;;;;4872754;29;20297;-72
2023/10/14 07:13:08;;;;;;;14.57;11.13;;;9.60;99.50;;;;;;4874326;29;20282;-72
2023/10/14 07:15:38;;;;;;;22.10;13.60;;;9.70;99.90;;;;;;4878975;29;20782;-72
2023/10/14 07:18:04;;;;;;;18.27;12.47;;;9.80;99.80;;;;;;4886016;29;20290;-72
2023/10/14 07:20:30;;;;;;;26.03;23.73;;;9.80;99.90;;;;;;4870853;29;20297;-72
2023/10/14 07:22:58;;;;;;;12.57;9.40;;;9.80;99.80;;;;;;4869194;29;20292;-72
2023/10/14 07:25:42;;;;;;;22.73;20.73;;;9.90;99.60;;;;;;4890219;29;20096;-73
2023/10/14 07:28:14;;;;;;;17.90;16.13;;;10.00;99.00;;;;;;4907889;29;20317;-73
2023/10/14 07:30:47;;;;;;;10.87;8.83;;;10.10;97.00;;;;;;4890663;29;20273;-73
2023/10/14 07:33:15;;;;;;;18.57;14.83;;;10.20;95.20;;;;;;4887518;29;20286;-73
2023/10/14 07:35:41;;;;;;;17.07;9.80;;;10.30;96.30;;;;;;4887262;29;20294;-73
2023/10/14 07:38:06;;;;;;;12.37;11.00;;;10.30;96.30;;;;;;4909205;29;20703;-73
2023/10/14 07:40:34;;;;;;;15.00;13.47;;;10.30;96.40;;;;;;4889123;29;20305;-73
2023/10/14 07:43:05;;;;;;;76.03;71.17;;;10.40;94.10;;;;;;4885868;29;20456;-73
2023/10/14 07:45:35;;;;;;;38.83;35.90;;;10.40;95.70;;;;;;4884084;29;20352;-73
2023/10/14 07:48:10;;;;;;;75.37;69.77;;;10.50;92.80;;;;;;4903067;29;20937;-73
2023/10/14 07:50:42;;;;;;;18.50;12.98;;;10.60;90.60;;;;;;4892468;29;20308;-72
2023/10/14 07:53:12;;;;;;;23.53;21.40;;;10.70;93.00;;;;;;4890730;29;20105;-73
2023/10/14 07:55:42;;;;;;;19.97;13.97;;;10.70;92.30;;;;;;4903649;29;20861;-73
2023/10/14 07:58:10;;;;;;;16.33;14.87;;;10.80;90.70;;;;;;4890138;29;20356;-73
2023/10/14 08:00:49;;;;;;;12.30;11.13;;;10.90;92.50;;;;;;4891029;29;20295;-73
2023/10/14 08:03:17;;;;;;;15.13;9.20;;;11.00;93.50;;;;;;4894996;29;20281;-73
2023/10/14 08:06:08;;;;;;;31.80;29.27;;;11.10;93.50;;;;;;4890940;29;20293;-73
2023/10/14 08:08:42;;;;;;;39.87;36.17;;;11.20;93.10;;;;;;4900132;29;20322;-73
2023/10/14 08:11:08;;;;;;;18.00;16.27;;;11.50;92.80;;;;;;4890028;29;20351;-73
2023/10/14 08:13:34;;;;;;;12.77;11.43;;;11.60;87.00;;;;;;4885943;29;20361;-73
2023/10/14 08:16:00;;;;;;;11.53;10.70;;;11.60;88.20;;;;;;4888538;29;20350;-73
2023/10/14 08:18:25;;;;;;;12.20;11.13;;;11.40;84.00;;;;;;4888695;29;20521;-73
2023/10/14 08:20:55;;;;;;;8.00;7.40;;;11.20;86.50;;;;;;4888722;29;20139;-73
2023/10/14 08:23:26;;;;;;;19.93;18.50;;;10.90;85.20;;;;;;4888210;29;20056;-73
2023/10/14 08:25:55;;;;;;;12.77;11.60;;;10.70;82.00;;;;;;4890176;29;20347;-73
2023/10/14 08:28:24;;;;;;;11.30;9.70;;;10.60;84.30;;;;;;4887773;29;20360;-73
2023/10/14 08:30:50;;;;;;;30.17;28.13;;;10.60;87.80;;;;;;4886482;29;20317;-73
2023/10/14 08:33:18;;;;;;;10.97;9.87;;;10.60;85.10;;;;;;4889732;29;20297;-73
2023/10/14 08:35:45;;;;;;;13.20;11.87;;;10.70;88.10;;;;;;4873951;29;20760;-72
2023/10/14 08:38:14;;;;;;;13.80;12.50;;;10.80;89.70;;;;;;4873585;29;20305;-72
2023/10/14 08:40:52;;;;;;;108.23;101.47;;;10.90;90.90;;;;;;4873804;29;20743;-72
2023/10/14 08:43:23;;;;;;;12.67;11.33;;;11.00;90.20;;;;;;4873426;29;20293;-72
2023/10/14 08:45:49;;;;;;;12.87;8.30;;;11.10;90.30;;;;;;4876423;29;20313;-72
2023/10/14 08:48:16;;;;;;;10.80;9.70;;;11.30;89.90;;;;;;4876218;29;20813;-72
2023/10/14 08:50:43;;;;;;;11.63;8.43;;;11.40;91.00;;;;;;4877136;29;20045;-72
2023/10/14 08:53:10;;;;;;;13.63;10.17;;;11.50;90.50;;;;;;4870175;29;20305;-73
2023/10/14 08:55:38;;;;;;;10.97;8.80;;;11.70;91.10;;;;;;4872362;29;20391;-73
2023/10/14 08:58:05;;;;;;;18.10;16.63;;;12.00;90.60;;;;;;4869416;29;20301;-73
2023/10/14 09:00:36;;;;;;;51.40;48.03;;;12.20;91.10;;;;;;4877940;29;20325;-73
2023/10/14 09:03:03;;;;;;;16.63;14.90;;;12.10;90.70;;;;;;4871574;29;20720;-73
2023/10/14 09:05:30;;;;;;;64.10;60.07;;;11.90;90.30;;;;;;4873343;29;20298;-73
2023/10/14 09:07:59;;;;;;;17.53;14.63;;;11.70;90.80;;;;;;4888392;29;20335;-72
2023/10/14 09:10:27;;;;;;;41.73;38.27;;;11.50;91.90;;;;;;4858213;29;20297;-73
2023/10/14 09:13:05;;;;;;;22.20;20.43;;;11.40;92.60;;;;;;4869075;29;20297;-72
2023/10/14 09:15:42;;;;;;;19.57;17.90;;;11.30;94.10;;;;;;4886744;29;20303;-72
2023/10/14 09:18:14;;;;;;;90.03;83.97;;;11.40;95.40;;;;;;4871651;29;20385;-72
2023/10/14 09:20:41;;;;;;;20.07;16.00;;;11.40;94.00;;;;;;4887637;29;20297;-72
2023/10/14 09:23:14;;;;;;;15.67;13.40;;;11.60;94.50;;;;;;4872628;29;20794;-72
2023/10/14 09:25:55;;;;;;;15.17;13.80;;;11.80;93.00;;;;;;4885287;29;20310;-72
2023/10/14 09:28:27;;;;;;;34.73;32.23;;;12.00;89.00;;;;;;4872613;29;20796;-72
2023/10/14 09:30:55;;;;;;;166.93;151.80;;;12.10;84.40;;;;;;4869764;29;20285;-72
2023/10/14 09:33:28;;;;;;;18.17;16.60;;;12.20;83.90;;;;;;4869508;29;20451;-72
2023/10/14 09:36:04;;;;;;;64.90;60.73;;;12.20;82.10;;;;;;4872072;29;20300;-72
2023/10/14 09:38:32;;;;;;;19.13;17.07;;;12.30;81.10;;;;;;4866660;29;20365;-73
2023/10/14 09:41:03;;;;;;;15.00;13.73;;;12.30;84.10;;;;;;4871245;29;20333;-72
2023/10/14 09:43:32;;;;;;;23.27;20.93;;;12.20;83.10;;;;;;4853008;29;20301;-73
2023/10/14 09:45:59;;;;;;;19.97;18.50;;;12.20;83.60;;;;;;4885327;29;20786;-73
2023/10/14 09:48:30;;;;;;;21.87;20.23;;;12.20;85.90;;;;;;4869904;29;20319;-73
2023/10/14 09:50:57;;;;;;;33.33;30.77;;;12.10;82.40;;;;;;4872638;29;20362;-73
2023/10/14 09:53:27;;;;;;;13.13;11.90;;;12.00;82.20;;;;;;4871848;29;20294;-73
2023/10/14 09:55:57;;;;;;;10.93;10.00;;;11.80;83.20;;;;;;4869609;29;20452;-73
2023/10/14 09:58:26;;;;;;;12.17;7.40;;;11.70;82.80;;;;;;4870845;29;20320;-73
2023/10/14 10:00:52;;;;;;;11.57;8.17;;;11.60;82.50;;;;;;4872580;29;20289;-73
2023/10/14 10:03:21;;;;;;;75.17;70.07;;;11.50;84.70;;;;;;4874144;29;20294;-73
2023/10/14 10:06:08;;;;;;;11.27;10.23;;;11.50;85.50;;;;;;4873714;29;20045;-73
2023/10/14 10:08:40;;;;;;;83.67;77.87;;;11.70;87.30;;;;;;4889804;29;20418;-73
2023/10/14 10:11:07;;;;;;;27.87;25.77;;;11.90;86.40;;;;;;4873549;29;20931;-73
2023/10/14 10:13:35;;;;;;;15.03;13.70;;;12.00;86.90;;;;;;4874679;29;20317;-73
2023/10/14 10:16:04;;;;;;;13.47;11.67;;;12.00;85.60;;;;;;4873931;29;20782;-73
2023/10/14 10:18:56;;;;;;;16.70;11.97;;;12.10;82.80;;;;;;4873733;29;20289;-72
2023/10/14 10:21:29;;;;;;;10.00;8.97;;;12.20;85.50;;;;;;4873865;29;20293;-72
2023/10/14 10:24:02;;;;;;;13.17;11.97;;;12.30;85.90;;;;;;4874279;29;20297;-72
2023/10/14 10:26:57;;;;;;;15.87;9.57;;;12.40;87.70;;;;;;4873247;29;20369;-72
2023/10/14 10:29:23;;;;;;;16.57;15.07;;;12.60;87.40;;;;;;4871445;29;20754;-73
2023/10/14 10:32:08;;;;;;;22.73;20.50;;;12.60;87.20;;;;;;4871179;29;20305;-73
2023/10/14 10:34:54;;;;;;;13.17;9.50;;;12.50;82.50;;;;;;4889795;29;20037;-72
2023/10/14 10:37:20;;;;;;;;;;;12.40;84.70;;;;;;4849992;29;20301;-72
2023/10/14 10:39:50;;;;;;;52.13;49.00;;;12.30;78.20;;;;;;4873690;29;19948;-72
2023/10/14 10:42:17;;;;;;;13.23;12.07;;;12.20;82.50;;;;;;4873527;29;20061;-72
2023/10/14 10:44:43;;;;;;;16.83;15.23;;;12.10;79.20;;;;;;4876207;29;20282;-72
2023/10/14 10:47:12;;;;;;;12.07;11.10;;;12.20;81.60;;;;;;4873707;29;20310;-72
2023/10/14 10:49:51;;;;;;;14.83;13.20;;;12.40;83.20;;;;;;4874145;29;20324;-72
2023/10/14 10:52:17;;;;;;;30.47;28.10;;;12.70;83.30;;;;;;4873436;29;20314;-72
2023/10/14 10:54:44;;;;;;;23.33;21.07;;;13.10;82.40;;;;;;4873469;29;20396;-72
2023/10/14 10:57:12;;;;;;;47.60;44.20;;;13.20;79.80;;;;;;4871441;29;20426;-72
2023/10/14 10:59:38;;;;;;;37.33;34.63;;;12.80;79.90;;;;;;4887047;29;20657;-73
2023/10/14 11:02:11;;;;;;;21.13;19.30;;;12.20;82.70;;;;;;4871523;29;20334;-72
2023/10/14 11:04:41;;;;;;;19.93;18.33;;;11.70;84.00;;;;;;4891175;29;20300;-72
2023/10/14 11:07:11;;;;;;;38.50;35.83;;;11.30;84.90;;;;;;4870041;29;20305;-72
2023/10/14 11:09:40;;;;;;;12.70;11.77;;;11.30;86.40;;;;;;4871511;29;20343;-72
2023/10/14 11:12:09;;;;;;;38.80;36.47;;;11.30;84.20;;;;;;4870820;29;20300;-72
2023/10/14 11:14:35;;;;;;;184.73;172.47;;;11.40;87.80;;;;;;4870991;29;20377;-72
2023/10/14 11:17:01;;;;;;;26.00;24.20;;;11.60;84.30;;;;;;4870822;29;20293;-72
2023/10/14 11:19:32;;;;;;;21.53;19.60;;;11.60;83.80;;;;;;4870226;29;20373;-72
2023/10/14 11:21:59;;;;;;;9.03;6.67;;;11.50;83.90;;;;;;4856207;29;20297;-72
2023/10/14 11:24:30;;;;;;;14.57;13.07;;;11.40;82.40;;;;;;4886984;29;20289;-72
2023/10/14 11:26:57;;;;;;;15.57;14.17;;;11.30;85.10;;;;;;4864849;29;21008;-72
2023/10/14 11:29:27;;;;;;;16.53;13.83;;;11.10;86.10;;;;;;4870763;29;20281;-72
2023/10/14 11:31:59;;;;;;;11.53;10.43;;;11.00;87.60;;;;;;4872958;29;20289;-72
2023/10/14 11:34:25;;;;;;;15.10;12.63;;;10.90;88.50;;;;;;4869703;29;20278;-72
2023/10/14 11:36:51;;;;;;;18.13;16.33;;;11.00;89.10;;;;;;4874971;29;20371;-72
2023/10/14 11:39:19;;;;;;;22.50;20.37;;;11.00;88.50;;;;;;4870462;29;20402;-72
2023/10/14 11:41:46;;;;;;;21.73;11.90;;;11.10;87.80;;;;;;4873882;29;20661;-72
2023/10/14 11:44:17;;;;;;;19.77;17.87;;;11.20;89.50;;;;;;4871269;29;20715;-72
2023/10/14 11:46:44;;;;;;;24.60;10.67;;;11.60;89.10;;;;;;4870172;29;20388;-72
2023/10/14 11:49:11;;;;;;;28.63;24.70;;;11.90;89.30;;;;;;4868986;29;20293;-72
2023/10/14 11:51:41;;;;;;;30.03;27.93;;;12.20;85.60;;;;;;4870425;29;20392;-72
2023/10/14 11:54:08;;;;;;;15.17;11.03;;;12.40;85.10;;;;;;4871075;29;20373;-72
2023/10/14 11:56:33;;;;;;;23.40;21.57;;;12.80;84.90;;;;;;4870273;29;20975;-72
2023/10/14 11:59:04;;;;;;;82.73;76.70;;;13.00;80.90;;;;;;4870188;29;20297;-72
2023/10/14 12:01:34;;;;;;;32.00;29.20;;;13.00;79.80;;;;;;4884463;29;20151;-72
2023/10/14 12:04:00;;;;;;;17.03;15.63;;;12.90;76.10;;;;;;4859000;29;20321;-73
2023/10/14 12:06:27;;;;;;;84.53;78.20;;;12.70;76.80;;;;;;4883452;29;20321;-73
2023/10/14 12:08:53;;;;;;;30.57;28.00;;;12.70;75.20;;;;;;4904471;29;20722;-73
2023/10/14 12:11:19;;;;;;;18.60;15.63;;;12.70;73.50;;;;;;4884047;29;20373;-73
2023/10/14 12:13:48;;;;;;;12.73;7.77;;;12.70;79.70;;;;;;4888999;29;20922;-73
2023/10/14 12:16:14;;;;;;;63.27;59.50;;;12.70;78.60;;;;;;4874011;29;20292;-73
2023/10/14 12:18:42;;;;;;;25.50;23.10;;;12.70;72.60;;;;;;4884855;29;20281;-73
2023/10/14 12:21:08;;;;;;;76.33;71.83;;;12.80;68.30;;;;;;4890141;29;20304;-73
2023/10/14 12:23:33;;;;;;;59.60;55.73;;;12.70;66.60;;;;;;4892893;29;20285;-73
2023/10/14 12:26:00;;;;;;;97.40;91.40;;;12.70;65.80;;;;;;4892212;29;20041;-73
2023/10/14 12:28:33;;;;;;;189.03;176.70;;;12.60;66.70;;;;;;4892034;29;20041;-73
2023/10/14 12:31:02;;;;;;;24.00;22.00;;;12.50;64.50;;;;;;4891001;29;20297;-73
2023/10/14 12:33:31;;;;;;;49.47;46.67;;;12.40;67.70;;;;;;4889421;29;20293;-73
2023/10/14 12:35:59;;;;;;;29.07;26.80;;;12.30;67.80;;;;;;4889778;29;20297;-73
2023/10/14 12:38:27;;;;;;;28.33;26.30;;;12.30;67.20;;;;;;4891950;29;20309;-73
2023/10/14 12:40:53;;;;;;;27.17;25.03;;;12.40;69.10;;;;;;4893901;29;20273;-73
2023/10/14 12:43:32;;;;;;;63.10;58.87;;;12.40;70.30;;;;;;4895906;29;20357;-73
2023/10/14 12:48:50;;;;;;;62.38;58.80;;;12.60;68.30;;;;;;4891097;29;20297;-73
2023/10/14 12:51:25;;;;;;;34.30;32.00;;;12.60;65.20;;;;;;4888927;29;20040;-73
2023/10/14 12:53:57;;;;;;;29.80;27.83;;;12.70;67.90;;;;;;4891056;29;20309;-73
2023/10/14 12:56:26;;;;;;;51.17;47.23;;;12.70;64.10;;;;;;4905393;29;20068;-73
2023/10/14 12:58:53;;;;;;;22.80;21.17;;;12.80;68.50;;;;;;4890797;29;20781;-73
2023/10/14 13:01:22;;;;;;;23.10;20.97;;;12.90;68.40;;;;;;4890552;29;20298;-73
2023/10/14 13:03:52;;;;;;;24.23;22.07;;;13.00;70.30;;;;;;4888947;29;20301;-73
2023/10/14 13:06:25;;;;;;;49.63;46.37;;;13.10;70.10;;;;;;4889468;29;20360;-73
2023/10/14 13:08:52;;;;;;;60.60;57.20;;;13.10;70.50;;;;;;4885823;29;20349;-73
2023/10/14 13:11:18;;;;;;;112.23;106.00;;;13.10;67.90;;;;;;4888176;29;20654;-73
2023/10/14 13:13:50;;;;;;;41.67;39.07;;;12.90;64.70;;;;;;4885843;29;20337;-73
2023/10/14 13:16:26;;;;;;;53.13;49.90;;;12.70;67.40;;;;;;4872157;29;20651;-73
2023/10/14 13:18:56;;;;;;;143.83;133.47;;;12.50;68.50;;;;;;4875271;29;20289;-73
2023/10/14 13:21:31;;;;;;;30.27;27.83;;;12.20;63.70;;;;;;4873048;29;20321;-73
2023/10/14 13:23:57;;;;;;;28.67;26.65;;;12.00;67.60;;;;;;4873401;29;20608;-72
2023/10/14 13:26:23;;;;;;;33.03;31.00;;;12.00;68.90;;;;;;4873023;29;20755;-73
2023/10/14 13:28:52;;;;;;;88.07;82.93;;;12.10;69.30;;;;;;4890207;29;20292;-73
2023/10/14 13:31:20;;;;;;;121.20;113.87;;;12.20;65.10;;;;;;4874888;29;20803;-73
2023/10/14 13:33:49;;;;;;;30.00;27.87;;;12.20;64.30;;;;;;4874742;29;20304;-72
2023/10/14 13:36:20;;;;;;;23.30;21.67;;;12.10;65.50;;;;;;4875207;29;20296;-72
2023/10/14 13:38:47;;;;;;;73.13;68.17;;;12.00;69.30;;;;;;4874646;29;20816;-73
2023/10/14 13:41:14;;;;;;;23.67;22.23;;;11.80;68.20;;;;;;4861154;29;20305;-72